createdAt,value
2023-02-02T00:01:25.549Z,100486.19
2023-02-02T00:03:56.029Z,100468.66
2023-02-02T00:06:29.517Z,100485.00
2023-02-02T00:08:58.933Z,100471.00
2023-02-02T00:11:29.743Z,100491.53
2023-02-02T00:13:57.482Z,100485.53
2023-02-02T00:16:41.136Z,100477.34
2023-02-02T00:19:12.924Z,100490.34
2023-02-02T00:21:41.988Z,100490.16
2023-02-02T00:24:13.361Z,100480.69
2023-02-02T00:26:42.749Z,100490.19
2023-02-02T00:29:16.127Z,100484.84
2023-02-02T00:31:43.872Z,100474.00
2023-02-02T00:34:13.703Z,100478.16
2023-02-02T00:36:41.558Z,100460.00
2023-02-02T00:39:10.485Z,100473.84
2023-02-02T00:41:40.267Z,100475.19
2023-02-02T00:44:27.040Z,100475.69
2023-02-02T00:46:54.606Z,100465.81
2023-02-02T00:49:24.044Z,100475.38
2023-02-02T00:51:51.727Z,100481.19
2023-02-02T00:54:19.405Z,100473.69
2023-02-02T00:56:47.027Z,100492.22
2023-02-02T00:59:14.667Z,100497.03
2023-02-02T01:01:42.215Z,100504.84
2023-02-02T01:04:09.919Z,100500.03
2023-02-02T01:06:42.832Z,100503.19
2023-02-02T01:09:10.489Z,100499.88
2023-02-02T01:11:38.155Z,100516.06
2023-02-02T01:14:05.960Z,100510.06
2023-02-02T01:16:33.718Z,100512.72
2023-02-02T01:19:01.405Z,100503.72
2023-02-02T01:21:28.943Z,100496.03
2023-02-02T01:23:57.905Z,100501.22
2023-02-02T01:26:25.492Z,100503.50
2023-02-02T01:28:53.071Z,100506.88
2023-02-02T01:31:21.623Z,100505.72
2023-02-02T01:33:50.920Z,100513.38
2023-02-02T01:36:22.425Z,100521.53
2023-02-02T01:38:50.816Z,100524.41
2023-02-02T01:41:22.181Z,100526.91
2023-02-02T01:43:56.261Z,100536.06
2023-02-02T01:46:25.692Z,100542.72
2023-02-02T01:49:01.006Z,100550.19
2023-02-02T01:51:35.977Z,100547.06
2023-02-02T01:54:07.083Z,100540.56
2023-02-02T01:56:43.789Z,100545.38
2023-02-02T01:59:13.456Z,100548.06
2023-02-02T02:01:41.067Z,100534.53
2023-02-02T02:04:08.678Z,100527.34
2023-02-02T02:06:36.314Z,100524.38
2023-02-02T02:09:05.811Z,100524.16
2023-02-02T02:11:36.712Z,100525.22
2023-02-02T02:14:24.086Z,100534.53
2023-02-02T02:17:03.056Z,100531.91
2023-02-02T02:20:28.174Z,100531.22
2023-02-02T02:23:38.137Z,100529.88
2023-02-02T02:26:37.494Z,100526.91
2023-02-02T02:29:21.045Z,100522.88
2023-02-02T02:32:08.519Z,100516.22
2023-02-02T02:34:48.673Z,100528.03
2023-02-02T02:37:24.834Z,100532.53
2023-02-02T02:39:58.844Z,100525.03
2023-02-02T02:42:30.875Z,100524.53
2023-02-02T02:45:02.395Z,100526.72
2023-02-02T02:47:33.222Z,100521.53
2023-02-02T02:50:00.821Z,100514.88
2023-02-02T02:52:28.561Z,100518.06
2023-02-02T02:54:57.921Z,100523.38
2023-02-02T02:57:49.868Z,100511.69
2023-02-02T03:00:36.263Z,100514.31
2023-02-02T03:03:13.704Z,100530.34
2023-02-02T03:05:51.271Z,100515.66
2023-02-02T03:08:25.521Z,100523.00
2023-02-02T03:10:53.658Z,100527.50
2023-02-02T03:13:21.258Z,100531.66
2023-02-02T03:15:48.972Z,100521.13
2023-02-02T03:18:21.211Z,100526.31
2023-02-02T03:20:48.959Z,100530.34
2023-02-02T03:23:16.592Z,100527.47
2023-02-02T03:25:44.558Z,100535.13
2023-02-02T03:28:12.639Z,100535.97
2023-02-02T03:30:42.621Z,100529.00
2023-02-02T03:33:12.779Z,100541.31
2023-02-02T03:35:41.876Z,100529.31
2023-02-02T03:38:10.865Z,100529.34
2023-02-02T03:40:38.565Z,100531.00
2023-02-02T03:43:06.257Z,100526.97
2023-02-02T03:45:35.332Z,100534.97
2023-02-02T03:48:05.206Z,100535.16
2023-02-02T03:50:33.298Z,100529.63
2023-02-02T03:53:02.219Z,100528.81
2023-02-02T03:55:31.213Z,100526.84
2023-02-02T03:57:58.747Z,100526.66
2023-02-02T04:00:26.262Z,100532.34
2023-02-02T04:02:55.050Z,100533.00
2023-02-02T04:05:22.840Z,100527.63
2023-02-02T04:07:50.621Z,100530.47
2023-02-02T04:10:20.012Z,100532.81
2023-02-02T04:12:47.670Z,100543.31
2023-02-02T04:15:15.482Z,100545.09
2023-02-02T04:17:43.374Z,100549.97
2023-02-02T04:20:12.447Z,100548.13
2023-02-02T04:22:40.091Z,100554.34
2023-02-02T04:25:08.820Z,100553.53
2023-02-02T04:27:37.722Z,100553.50
2023-02-02T04:30:06.737Z,100558.88
2023-02-02T04:32:34.264Z,100562.88
2023-02-02T04:35:01.859Z,100561.06
2023-02-02T04:37:31.809Z,100556.91
2023-02-02T04:39:59.513Z,100555.25
2023-02-02T04:42:27.310Z,100557.56
2023-02-02T04:44:56.527Z,100569.44
2023-02-02T04:47:24.098Z,100572.56
2023-02-02T04:49:51.745Z,100577.09
2023-02-02T04:52:19.350Z,100576.56
2023-02-02T04:54:46.961Z,100576.91
2023-02-02T04:57:14.593Z,100577.94
2023-02-02T04:59:42.588Z,100574.94
2023-02-02T05:02:11.535Z,100576.41
2023-02-02T05:04:39.234Z,100571.06
2023-02-02T05:07:06.924Z,100575.75
2023-02-02T05:09:34.779Z,100577.78
2023-02-02T05:12:02.393Z,100573.59
2023-02-02T05:14:29.930Z,100579.44
2023-02-02T05:16:57.632Z,100583.28
2023-02-02T05:19:26.712Z,100586.94
2023-02-02T05:21:54.737Z,100585.28
2023-02-02T05:24:22.369Z,100589.63
2023-02-02T05:26:53.033Z,100585.63
2023-02-02T05:29:20.592Z,100584.78
2023-02-02T05:31:48.605Z,100589.28
2023-02-02T05:34:16.217Z,100588.47
2023-02-02T05:36:45.229Z,100583.31
2023-02-02T05:39:13.461Z,100587.00
2023-02-02T05:41:41.055Z,100600.47
2023-02-02T05:44:10.487Z,100589.28
2023-02-02T05:46:38.005Z,100603.13
2023-02-02T05:49:06.055Z,100603.59
2023-02-02T05:51:39.998Z,100604.25
2023-02-02T05:54:08.965Z,100603.47
2023-02-02T05:56:36.717Z,100608.94
2023-02-02T05:59:07.597Z,100601.25
2023-02-02T06:01:35.749Z,100600.25
2023-02-02T06:04:03.435Z,100597.59
2023-02-02T06:06:31.188Z,100596.59
2023-02-02T06:08:59.023Z,100599.25
2023-02-02T06:11:35.091Z,100600.41
2023-02-02T06:14:02.754Z,100604.41
2023-02-02T06:16:30.795Z,100598.56
2023-02-02T06:19:01.163Z,100594.06
2023-02-02T06:21:31.149Z,100595.19
2023-02-02T06:24:02.410Z,100595.97
2023-02-02T06:26:31.444Z,100600.28
2023-02-02T06:28:59.061Z,100588.78
2023-02-02T06:31:26.965Z,100597.16
2023-02-02T06:33:56.031Z,100609.16
2023-02-02T06:36:25.996Z,100622.97
2023-02-02T06:38:56.214Z,100629.16
2023-02-02T06:41:24.937Z,100636.88
2023-02-02T06:43:53.894Z,100622.84
2023-02-02T06:46:21.563Z,100623.88
2023-02-02T06:48:49.281Z,100617.91
2023-02-02T06:51:17.054Z,100627.06
2023-02-02T06:53:44.756Z,100622.03
2023-02-02T06:56:14.290Z,100628.91
2023-02-02T06:58:43.185Z,100631.06
2023-02-02T07:01:14.698Z,100621.44
2023-02-02T07:03:42.553Z,100625.56
2023-02-02T07:06:18.305Z,100618.94
2023-02-02T07:08:47.624Z,100611.22
2023-02-02T07:11:30.171Z,100602.75
2023-02-02T07:13:58.102Z,100610.25
2023-02-02T07:16:30.351Z,100609.28
2023-02-02T07:18:58.161Z,100606.63
2023-02-02T07:21:28.227Z,100606.81
2023-02-02T07:23:56.032Z,100610.78
2023-02-02T07:26:23.662Z,100614.13
2023-02-02T07:28:51.503Z,100617.34
2023-02-02T07:31:21.740Z,100623.19
2023-02-02T07:33:51.313Z,100624.66
2023-02-02T07:36:20.584Z,100624.66
2023-02-02T07:38:49.534Z,100636.72
2023-02-02T07:41:18.073Z,100632.22
2023-02-02T07:43:47.991Z,100636.88
2023-02-02T07:46:16.363Z,100642.56
2023-02-02T07:48:44.206Z,100633.72
2023-02-02T07:51:16.536Z,100643.72
2023-02-02T07:53:45.434Z,100640.53
2023-02-02T07:56:14.924Z,100637.53
2023-02-02T07:58:42.967Z,100640.38
2023-02-02T08:03:55.372Z,100646.41
2023-02-02T08:06:30.607Z,100647.06
2023-02-02T08:08:58.834Z,100637.88
2023-02-02T08:11:27.482Z,100647.09
2023-02-02T08:13:57.063Z,100656.94
2023-02-02T08:16:26.447Z,100658.75
2023-02-02T08:18:54.328Z,100658.94
2023-02-02T08:21:22.726Z,100664.47
2023-02-02T08:23:53.616Z,100673.47
2023-02-02T08:26:23.153Z,100678.50
2023-02-02T08:28:54.652Z,100669.81
2023-02-02T08:31:24.615Z,100664.13
2023-02-02T08:33:53.911Z,100679.34
2023-02-02T08:36:23.270Z,100677.84
2023-02-02T08:38:53.036Z,100666.47
2023-02-02T08:41:24.062Z,100673.50
2023-02-02T08:43:52.533Z,100683.69
2023-02-02T08:46:21.925Z,100667.50
2023-02-02T08:48:50.853Z,100678.53
2023-02-02T08:51:20.837Z,100680.66
2023-02-02T08:53:48.767Z,100680.84
2023-02-02T08:56:23.384Z,100682.16
2023-02-02T08:58:54.956Z,100687.88
2023-02-02T09:01:24.351Z,100687.94
2023-02-02T09:03:54.933Z,100685.25
2023-02-02T09:06:23.601Z,100688.25
2023-02-02T09:08:51.255Z,100709.81
2023-02-02T09:11:20.881Z,100680.56
2023-02-02T09:13:50.541Z,100688.75
2023-02-02T09:16:19.925Z,100679.41
2023-02-02T09:18:48.641Z,100681.75
2023-02-02T09:21:18.400Z,100687.56
2023-02-02T09:23:47.691Z,100694.09
2023-02-02T09:26:17.514Z,100693.59
2023-02-02T09:28:49.169Z,100695.78
2023-02-02T09:31:17.502Z,100693.94
2023-02-02T09:33:45.759Z,100691.41
2023-02-02T09:36:16.471Z,100699.28
2023-02-02T09:38:44.871Z,100694.63
2023-02-02T09:41:48.105Z,100702.13
2023-02-02T09:44:27.380Z,100711.78
2023-02-02T09:47:06.091Z,100709.66
2023-02-02T09:49:40.995Z,100719.69
2023-02-02T09:52:17.920Z,100723.34
2023-02-02T09:54:49.340Z,100730.53
2023-02-02T09:57:23.775Z,100731.50
2023-02-02T09:59:56.309Z,100738.03
2023-02-02T10:02:29.907Z,100740.72
2023-02-02T10:05:03.114Z,100749.75
2023-02-02T10:07:36.702Z,100761.09
2023-02-02T10:10:17.043Z,100761.09
2023-02-02T10:12:55.019Z,100757.78
2023-02-02T10:15:38.247Z,100760.94
2023-02-02T10:18:33.511Z,100759.78
2023-02-02T10:21:05.158Z,100772.13
2023-02-02T10:23:38.840Z,100770.97
2023-02-02T10:26:15.677Z,100775.16
2023-02-02T10:28:46.123Z,100769.13
2023-02-02T10:31:36.929Z,100761.63
2023-02-02T10:34:14.762Z,100765.47
2023-02-02T10:37:01.073Z,100766.63
2023-02-02T10:39:40.577Z,100765.47
2023-02-02T10:42:22.746Z,100766.78
2023-02-02T10:44:54.044Z,100757.09
2023-02-02T10:47:26.820Z,100756.75
2023-02-02T10:50:03.747Z,100754.25
2023-02-02T10:52:36.874Z,100758.25
2023-02-02T10:55:14.086Z,100758.25
2023-02-02T10:57:54.070Z,100761.09
2023-02-02T11:00:25.819Z,100759.59
2023-02-02T11:02:55.978Z,100762.44
2023-02-02T11:05:43.820Z,100764.13
2023-02-02T11:08:15.659Z,100766.63
2023-02-02T11:10:47.289Z,100767.75
2023-02-02T11:13:29.470Z,100746.31
2023-02-02T11:16:20.114Z,100768.41
2023-02-02T11:18:51.928Z,100765.91
2023-02-02T11:21:36.919Z,100764.41
2023-02-02T11:24:08.481Z,100759.00
2023-02-02T11:26:47.133Z,100773.59
2023-02-02T11:29:19.382Z,100773.09
2023-02-02T11:31:47.531Z,100767.94
2023-02-02T11:34:22.612Z,100776.50
2023-02-02T11:37:13.613Z,100764.78
2023-02-02T11:39:42.089Z,100772.66
2023-02-02T11:42:17.472Z,100776.84
2023-02-02T11:44:48.723Z,100782.34
2023-02-02T11:47:22.778Z,100782.84
2023-02-02T11:49:52.615Z,100781.50
2023-02-02T11:52:24.692Z,100766.44
2023-02-02T11:54:57.609Z,100763.75
2023-02-02T11:57:28.263Z,100770.25
2023-02-02T12:00:16.045Z,100775.13
2023-02-02T12:03:03.560Z,100769.28
2023-02-02T12:05:39.224Z,100767.47
2023-02-02T12:08:11.067Z,100770.66
2023-02-02T12:10:47.963Z,100776.50
2023-02-02T12:13:25.481Z,100770.78
2023-02-02T12:16:04.577Z,100772.81
2023-02-02T12:18:45.771Z,100770.78
2023-02-02T12:21:25.942Z,100768.94
2023-02-02T12:24:22.188Z,100777.16
2023-02-02T12:26:57.128Z,100778.13
2023-02-02T12:29:39.826Z,100773.41
2023-02-02T12:32:19.744Z,100775.13
2023-02-02T12:35:09.749Z,100774.47
2023-02-02T12:37:53.375Z,100771.94
2023-02-02T12:40:40.505Z,100774.25
2023-02-02T12:43:20.040Z,100786.16
2023-02-02T12:46:10.661Z,100789.16
2023-02-02T12:48:51.201Z,100784.78
2023-02-02T12:51:35.362Z,100776.28
2023-02-02T12:54:32.894Z,100783.09
2023-02-02T12:57:12.832Z,100790.47
2023-02-02T13:00:07.781Z,100786.97
2023-02-02T13:02:42.454Z,100782.50
2023-02-02T13:05:35.848Z,100790.00
2023-02-02T13:08:11.420Z,100792.16
2023-02-02T13:10:48.936Z,100788.91
2023-02-02T13:13:20.643Z,100794.44
2023-02-02T13:15:53.216Z,100794.72
2023-02-02T13:18:26.008Z,100797.78
2023-02-02T13:20:59.209Z,100790.78
2023-02-02T13:23:31.893Z,100795.34
2023-02-02T13:26:10.753Z,100795.69
2023-02-02T13:28:44.303Z,100802.38
2023-02-02T13:31:18.943Z,100801.53
2023-02-02T13:33:51.152Z,100806.00
2023-02-02T13:36:26.115Z,100804.16
2023-02-02T13:38:58.521Z,100802.84
2023-02-02T13:41:29.321Z,100801.00
2023-02-02T13:44:06.413Z,100801.81
2023-02-02T13:46:43.162Z,100802.19
2023-02-02T13:49:26.692Z,100805.53
2023-02-02T13:52:20.021Z,100796.28
2023-02-02T13:55:19.457Z,100800.81
2023-02-02T13:58:28.891Z,100802.56
2023-02-02T14:01:02.970Z,100801.72
2023-02-02T14:03:38.625Z,100803.94
2023-02-02T14:06:15.936Z,100815.09
2023-02-02T14:08:50.190Z,100812.47
2023-02-02T14:11:25.869Z,100808.84
2023-02-02T14:14:19.324Z,100817.19
2023-02-02T14:16:53.702Z,100825.41
2023-02-02T14:19:49.292Z,100824.72
2023-02-02T14:22:40.069Z,100821.03
2023-02-02T14:25:45.167Z,100820.97
2023-02-02T14:28:15.530Z,100831.53
2023-02-02T14:30:44.545Z,100837.53
2023-02-02T14:33:28.166Z,100839.72
2023-02-02T14:36:04.417Z,100842.56
2023-02-02T14:38:51.103Z,100856.81
2023-02-02T14:41:56.968Z,100861.88
2023-02-02T14:44:26.346Z,100856.72
2023-02-02T14:46:55.636Z,100862.97
2023-02-02T14:49:29.013Z,100867.66
2023-02-02T14:52:03.177Z,100871.38
2023-02-02T14:54:36.921Z,100864.00
2023-02-02T14:57:20.591Z,100881.94
2023-02-02T14:59:48.969Z,100880.59
2023-02-02T15:02:21.852Z,100888.16
2023-02-02T15:04:50.409Z,100881.34
2023-02-02T15:07:41.179Z,100882.69
2023-02-02T15:10:11.409Z,100893.06
2023-02-02T15:12:43.058Z,100896.25
2023-02-02T15:15:20.082Z,100883.34
2023-02-02T15:18:08.529Z,100884.53
2023-02-02T15:20:43.181Z,100893.56
2023-02-02T15:23:24.403Z,100895.06
2023-02-02T15:25:57.764Z,100895.91
2023-02-02T15:28:30.613Z,100899.94
2023-02-02T15:31:03.803Z,100906.94
2023-02-02T15:33:37.234Z,100909.63
2023-02-02T15:36:07.985Z,100900.25
2023-02-02T15:38:39.265Z,100906.28
2023-02-02T15:41:14.269Z,100896.25
2023-02-02T15:43:41.898Z,100899.59
2023-02-02T15:46:13.796Z,100903.09
2023-02-02T15:48:43.935Z,100905.97
2023-02-02T15:51:20.238Z,100897.72
2023-02-02T15:53:51.748Z,100907.28
2023-02-02T15:56:29.247Z,100921.84
2023-02-02T15:58:58.479Z,100925.34
2023-02-02T16:01:27.428Z,100919.69
2023-02-02T16:04:08.302Z,100923.50
2023-02-02T16:06:36.431Z,100938.22
2023-02-02T16:09:04.914Z,100940.59
2023-02-02T16:11:32.961Z,100945.94
2023-02-02T16:14:04.111Z,100941.44
2023-02-02T16:16:33.682Z,100945.44
2023-02-02T16:19:14.708Z,100954.66
2023-02-02T16:21:47.588Z,100964.50
2023-02-02T16:24:19.854Z,100973.22
2023-02-02T16:26:47.458Z,100963.50
2023-02-02T16:29:18.473Z,100964.03
2023-02-02T16:31:47.689Z,100970.38
2023-02-02T16:34:18.821Z,100978.25
2023-02-02T16:37:06.274Z,100984.94
2023-02-02T16:39:34.366Z,100991.28
2023-02-02T16:42:11.956Z,100973.53
2023-02-02T16:44:42.864Z,100980.88
2023-02-02T16:47:41.493Z,100982.06
2023-02-02T16:50:28.440Z,100986.91
2023-02-02T16:53:00.900Z,100973.69
2023-02-02T16:55:47.979Z,100975.38
2023-02-02T16:58:22.309Z,100979.72
2023-02-02T17:01:14.140Z,100990.72
2023-02-02T17:03:49.810Z,100990.72
2023-02-02T17:06:26.115Z,100985.56
2023-02-02T17:08:53.770Z,101004.66
2023-02-02T17:11:26.236Z,101009.50
2023-02-02T17:13:55.149Z,101014.00
2023-02-02T17:16:24.807Z,101021.03
2023-02-02T17:18:55.038Z,101026.72
2023-02-02T17:21:26.428Z,101030.75
2023-02-02T17:23:54.991Z,101031.06
2023-02-02T17:26:22.678Z,101024.03
2023-02-02T17:29:05.500Z,101042.44
2023-02-02T17:31:33.358Z,101050.00
2023-02-02T17:34:01.297Z,101041.81
2023-02-02T17:36:33.406Z,101043.16
2023-02-02T17:39:00.990Z,101050.84
2023-02-02T17:41:28.635Z,101047.16
2023-02-02T17:43:56.315Z,101043.97
2023-02-02T17:46:24.240Z,101054.19
2023-02-02T17:48:51.876Z,101057.88
2023-02-02T17:51:19.491Z,101056.22
2023-02-02T17:53:48.548Z,101051.34
2023-02-02T17:56:16.382Z,101050.38
2023-02-02T17:58:44.161Z,101049.47
2023-02-02T18:01:13.165Z,101047.31
2023-02-02T18:03:44.218Z,101039.91
2023-02-02T18:06:12.672Z,101040.56
2023-02-02T18:08:40.791Z,101044.72
2023-02-02T18:11:12.381Z,101034.19
2023-02-02T18:13:42.382Z,101040.75
2023-02-02T18:16:10.878Z,101036.34
2023-02-02T18:18:38.973Z,101035.16
2023-02-02T18:21:10.015Z,101040.38
2023-02-02T18:23:38.350Z,101047.41
2023-02-02T18:26:18.695Z,101050.44
2023-02-02T18:28:50.785Z,101053.09
2023-02-02T18:31:20.739Z,101053.09
2023-02-02T18:33:48.780Z,101048.72
2023-02-02T18:36:27.077Z,101052.41
2023-02-02T18:38:58.843Z,101057.94
2023-02-02T18:41:28.845Z,101056.72
2023-02-02T18:43:56.574Z,101067.41
2023-02-02T18:46:24.610Z,101063.56
2023-02-02T18:48:52.214Z,101069.06
2023-02-02T18:51:21.840Z,101072.78
2023-02-02T18:53:50.222Z,101067.09
2023-02-02T18:56:18.073Z,101060.06
2023-02-02T18:58:46.980Z,101063.75
2023-02-02T19:01:16.553Z,101066.06
2023-02-02T19:03:48.090Z,101065.53
2023-02-02T19:06:33.356Z,101061.34
2023-02-02T19:09:00.949Z,101068.19
2023-02-02T19:11:35.843Z,101059.16
2023-02-02T19:14:12.395Z,101060.06
2023-02-02T19:16:40.209Z,101062.56
2023-02-02T19:19:14.157Z,101054.88
2023-02-02T19:21:42.127Z,101054.00
2023-02-02T19:24:13.542Z,101051.75
2023-02-02T19:26:48.563Z,101047.06
2023-02-02T19:29:20.222Z,101042.88
2023-02-02T19:31:53.272Z,101055.03
2023-02-02T19:34:23.295Z,101048.53
2023-02-02T19:36:52.129Z,101047.84
2023-02-02T19:39:24.090Z,101048.19
2023-02-02T19:41:54.769Z,101056.34
2023-02-02T19:44:24.825Z,101054.50
2023-02-02T19:46:53.786Z,101054.34
2023-02-02T19:49:30.391Z,101052.34
2023-02-02T19:51:59.178Z,101046.63
2023-02-02T19:54:34.874Z,101046.31
2023-02-02T19:57:15.517Z,101042.28
2023-02-02T19:59:50.525Z,101038.94
2023-02-02T20:02:39.366Z,101039.91
2023-02-02T20:05:18.304Z,101042.72
2023-02-02T20:07:46.205Z,101044.91
2023-02-02T20:10:21.205Z,101049.03
2023-02-02T20:12:49.307Z,101048.50
2023-02-02T20:15:32.413Z,101063.91
2023-02-02T20:18:02.054Z,101065.03
2023-02-02T20:20:34.357Z,101071.56
2023-02-02T20:23:02.195Z,101069.25
2023-02-02T20:25:32.303Z,101058.72
2023-02-02T20:28:01.635Z,101070.97
2023-02-02T20:30:32.061Z,101070.59
2023-02-02T20:33:02.924Z,101075.53
2023-02-02T20:35:37.043Z,101082.25
2023-02-02T20:38:18.823Z,101082.78
2023-02-02T20:40:50.081Z,101082.13
2023-02-02T20:43:17.691Z,101083.72
2023-02-02T20:45:46.607Z,101072.94
2023-02-02T20:48:15.555Z,101082.84
2023-02-02T20:50:46.512Z,101091.06
2023-02-02T20:53:16.423Z,101087.72
2023-02-02T20:55:44.542Z,101100.69
2023-02-02T20:58:12.358Z,101101.34
2023-02-02T21:00:40.274Z,101102.97
2023-02-02T21:03:09.167Z,101099.03
2023-02-02T21:05:36.908Z,101106.16
2023-02-02T21:08:05.229Z,101099.25
2023-02-02T21:10:32.859Z,101105.16
2023-02-02T21:13:00.458Z,101114.06
2023-02-02T21:15:28.006Z,101102.91
2023-02-02T21:17:58.024Z,101106.66
2023-02-02T21:20:27.252Z,101107.13
2023-02-02T21:22:56.690Z,101104.47
2023-02-02T21:25:24.397Z,101109.72
2023-02-02T21:27:52.145Z,101107.22
2023-02-02T21:30:20.008Z,101111.56
2023-02-02T21:32:48.927Z,101103.63
2023-02-02T21:35:16.706Z,101107.44
2023-02-02T21:37:47.182Z,101107.44
2023-02-02T21:40:22.415Z,101109.09
2023-02-02T21:42:51.067Z,101099.81
2023-02-02T21:45:35.840Z,101105.84
2023-02-02T21:48:07.135Z,101091.41
2023-02-02T21:50:36.656Z,101100.19
2023-02-02T21:53:22.472Z,101089.53
2023-02-02T21:55:54.534Z,101084.66
2023-02-02T21:58:25.400Z,101094.53
2023-02-02T22:00:55.880Z,101094.84
2023-02-02T22:03:27.838Z,101096.44
2023-02-02T22:06:26.164Z,101092.94
2023-02-02T22:09:01.837Z,101089.50
2023-02-02T22:11:35.671Z,101092.53
2023-02-02T22:14:16.466Z,101100.03
2023-02-02T22:16:50.658Z,101092.34
2023-02-02T22:19:34.093Z,101098.72
2023-02-02T22:22:15.053Z,101105.22
2023-02-02T22:24:45.545Z,101109.56
2023-02-02T22:27:19.817Z,101109.56
2023-02-02T22:29:47.476Z,101104.75
2023-02-02T22:32:15.057Z,101105.72
2023-02-02T22:34:42.621Z,101110.31
2023-02-02T22:37:10.362Z,101108.25
2023-02-02T22:39:42.580Z,101124.53
2023-02-02T22:42:11.579Z,101131.09
2023-02-02T22:44:39.269Z,101130.47
2023-02-02T22:47:06.931Z,101130.34
2023-02-02T22:49:34.496Z,101128.03
2023-02-02T22:52:02.020Z,101113.44
2023-02-02T22:54:30.896Z,101109.19
2023-02-02T22:56:58.475Z,101113.31
2023-02-02T22:59:27.368Z,101118.28
2023-02-02T23:01:54.938Z,101119.06
2023-02-02T23:04:22.876Z,101132.16
2023-02-02T23:06:50.454Z,101128.50
2023-02-02T23:09:18.282Z,101131.94
2023-02-02T23:11:48.058Z,101132.09
2023-02-02T23:14:16.978Z,101134.16
2023-02-02T23:16:47.160Z,101141.97
2023-02-02T23:19:14.712Z,101143.47
2023-02-02T23:21:42.402Z,101134.16
2023-02-02T23:24:10.294Z,101119.94
2023-02-02T23:26:37.852Z,101112.47
2023-02-02T23:29:06.664Z,101123.22
2023-02-02T23:31:34.343Z,101116.56
2023-02-02T23:34:03.286Z,101108.88
2023-02-02T23:36:30.917Z,101117.84
2023-02-02T23:38:58.630Z,101133.59
2023-02-02T23:41:26.321Z,101135.91
2023-02-02T23:43:54.308Z,101137.91
2023-02-02T23:46:22.361Z,101126.97
2023-02-02T23:48:53.581Z,101129.50
2023-02-02T23:51:22.530Z,101145.16
2023-02-02T23:53:50.125Z,101149.59
2023-02-02T23:56:18.356Z,101156.59
2023-02-02T23:58:45.911Z,101168.53
